Time;durP1;ratioP1;P1;durP2;ratioP2;P2;SDS_P1;SDS_P2;PMS_P1;PMS_P2;Temp;Humidity;BMP_temperature;BMP_pressure;BME280_temperature;BME280_humidity;BME280_pressure;Samples;Min_cycle;Max_cycle;Signal;HPM_P1;HPM_P2
2022/12/20 00:00:56;;;;;;;33.57;22.37;;;;;;;-1.51;100.00;97091.09;5027923;28;105441;-69
2022/12/20 00:03:24;;;;;;;32.50;21.50;;;;;;;-1.47;100.00;97091.56;5026805;28;105829;-69
2022/12/20 00:05:51;;;;;;;33.00;21.30;;;;;;;-1.46;100.00;97081.00;5027756;28;101942;-69
2022/12/20 00:08:18;;;;;;;33.00;21.40;;;;;;;-1.55;100.00;97076.72;5027629;28;105372;-69
2022/12/20 00:10:46;;;;;;;34.33;21.87;;;;;;;-1.52;100.00;97079.03;5027234;28;105397;-69
2022/12/20 00:13:14;;;;;;;34.43;21.07;;;;;;;-1.41;100.00;97085.72;5027821;28;101859;-69
2022/12/20 00:15:41;;;;;;;34.17;21.53;;;;;;;-1.54;100.00;97075.72;5029082;27;102521;-69
2022/12/20 00:18:08;;;;;;;37.20;22.43;;;;;;;-1.51;100.00;97080.66;5029563;27;102060;-70
2022/12/20 00:20:35;;;;;;;35.07;22.50;;;;;;;-1.55;100.00;97091.53;5029008;27;102269;-69
2022/12/20 00:23:02;;;;;;;36.83;22.90;;;;;;;-1.53;100.00;97092.22;5026771;28;105713;-69
2022/12/20 00:25:29;;;;;;;36.60;22.47;;;;;;;-1.43;100.00;97093.69;5027610;28;102182;-69
2022/12/20 00:27:56;;;;;;;38.07;23.50;;;;;;;-1.39;100.00;97088.97;5032568;27;102474;-69
2022/12/20 00:30:24;;;;;;;38.97;23.53;;;;;;;-1.27;100.00;97092.94;5031621;27;103044;-69
2022/12/20 00:32:52;;;;;;;33.70;22.57;;;;;;;-1.27;100.00;97087.72;5030635;27;101906;-69
2022/12/20 00:35:19;;;;;;;34.97;22.23;;;;;;;-1.28;100.00;97083.44;5030817;28;104415;-69
2022/12/20 00:37:46;;;;;;;35.10;23.57;;;;;;;-1.31;100.00;97076.75;5033662;28;105585;-69
2022/12/20 00:40:14;;;;;;;31.77;21.23;;;;;;;-1.28;100.00;97073.84;5032066;27;102588;-70
2022/12/20 00:42:41;;;;;;;34.67;22.03;;;;;;;-1.27;100.00;97069.47;5031501;27;102771;-69
2022/12/20 00:45:09;;;;;;;35.80;22.33;;;;;;;-1.31;100.00;97071.53;5030769;28;101896;-69
2022/12/20 00:47:37;;;;;;;38.57;24.53;;;;;;;-1.27;100.00;97080.69;5030704;28;105268;-69
2022/12/20 00:50:06;;;;;;;32.17;21.77;;;;;;;-1.38;100.00;97075.78;5029968;28;104106;-69
2022/12/20 00:52:34;;;;;;;35.13;21.90;;;;;;;-1.45;100.00;97074.78;5031912;27;101859;-69
2022/12/20 00:55:01;;;;;;;33.80;21.37;;;;;;;-1.37;100.00;97066.16;5030619;28;105089;-69
2022/12/20 00:57:28;;;;;;;32.93;20.90;;;;;;;-1.39;100.00;97071.53;5031593;27;102499;-69
2022/12/20 00:59:55;;;;;;;35.20;21.83;;;;;;;-1.29;100.00;97069.63;5034179;28;102106;-70
2022/12/20 01:02:22;;;;;;;38.00;22.87;;;;;;;-1.41;100.00;97073.50;5029706;28;105776;-70
2022/12/20 01:04:50;;;;;;;35.67;22.33;;;;;;;-1.37;100.00;97077.41;5029845;28;102019;-70
2022/12/20 01:07:19;;;;;;;37.03;22.87;;;;;;;-1.33;100.00;97080.50;5030340;27;103503;-70
2022/12/20 01:09:46;;;;;;;33.10;21.70;;;;;;;-1.34;100.00;97071.88;5029648;28;105125;-70
2022/12/20 01:12:13;;;;;;;35.73;23.07;;;;;;;-1.20;100.00;97078.25;5030430;28;101939;-70
2022/12/20 01:14:40;;;;;;;37.50;23.63;;;;;;;-1.31;100.00;97087.19;5030538;28;105564;-70
2022/12/20 01:17:07;;;;;;;36.43;23.30;;;;;;;-1.35;100.00;97083.31;5029465;28;105744;-70
2022/12/20 01:19:34;;;;;;;39.93;23.47;;;;;;;-1.48;100.00;97082.13;5029423;28;101847;-70
2022/12/20 01:22:02;;;;;;;37.10;22.77;;;;;;;-1.50;100.00;97076.22;5032940;28;105232;-70
2022/12/20 01:24:29;;;;;;;35.57;23.30;;;;;;;-1.45;100.00;97080.00;5029278;28;101936;-70
2022/12/20 01:26:57;;;;;;;39.10;23.57;;;;;;;-1.36;100.00;97080.84;5031360;27;102570;-70
2022/12/20 01:29:24;;;;;;;39.13;25.60;;;;;;;-1.31;100.00;97087.19;5029314;28;104739;-70
2022/12/20 01:31:53;;;;;;;36.53;25.57;;;;;;;-1.41;100.00;97075.28;5029943;28;101796;-70
2022/12/20 01:34:20;;;;;;;37.07;24.10;;;;;;;-1.57;100.00;97076.06;5029889;28;104821;-70
2022/12/20 01:36:48;;;;;;;37.70;23.33;;;;;;;-1.43;100.00;97083.25;5030609;27;102781;-70
2022/12/20 01:39:18;;;;;;;39.67;24.13;;;;;;;-1.42;100.00;97074.47;5029763;28;101856;-70
2022/12/20 01:41:46;;;;;;;38.57;23.27;;;;;;;-1.33;100.00;97072.69;5029865;28;104744;-70
2022/12/20 01:45:04;;;;;;;36.30;23.13;;;;;;;-1.34;100.00;97064.06;5033723;28;102796;-70
2022/12/20 01:47:34;;;;;;;38.70;23.70;;;;;;;-1.34;100.00;97061.44;4922192;28;105590;-70
2022/12/20 01:50:04;;;;;;;34.27;23.20;;;;;;;-1.41;100.00;97065.69;4932546;28;105288;-70
2022/12/20 01:52:35;;;;;;;39.43;24.00;;;;;;;-1.49;100.00;97060.44;4932717;28;101892;-70
2022/12/20 01:55:09;;;;;;;38.13;22.47;;;;;;;-1.44;100.00;97058.16;4932468;28;105776;-70
2022/12/20 01:57:42;;;;;;;37.80;21.90;;;;;;;-1.34;100.00;97045.78;4932529;28;105656;-70
2022/12/20 02:00:11;;;;;;;34.33;21.50;;;;;;;-1.28;100.00;97046.94;4932620;28;101975;-70
2022/12/20 02:02:47;;;;;;;32.47;21.77;;;;;;;-1.29;100.00;97045.31;4932659;28;105566;-70
2022/12/20 02:05:14;;;;;;;35.93;22.10;;;;;;;-1.30;100.00;97041.91;4948518;28;102513;-70
2022/12/20 02:07:50;;;;;;;33.17;20.80;;;;;;;-1.41;100.00;97034.38;4936125;28;101920;-70
2022/12/20 02:10:21;;;;;;;35.43;22.20;;;;;;;-1.35;100.00;97023.31;4932248;28;105907;-70
2022/12/20 02:12:48;;;;;;;34.53;22.60;;;;;;;-1.26;100.00;97035.34;4932846;28;101939;-70
2022/12/20 02:15:35;;;;;;;31.77;21.07;;;;;;;-1.17;100.00;97033.56;4948510;28;102501;-70
2022/12/20 02:18:15;;;;;;;34.00;21.87;;;;;;;-1.24;100.00;97030.81;4972981;28;102550;-70
2022/12/20 02:21:07;;;;;;;34.97;22.07;;;;;;;-1.43;100.00;97051.16;5029434;28;102144;-70
2022/12/20 02:23:53;;;;;;;33.20;21.97;;;;;;;-1.33;100.00;97041.38;5030583;27;102631;-70
2022/12/20 02:26:40;;;;;;;35.23;22.40;;;;;;;-1.21;100.00;97040.09;5028375;28;105326;-70
2022/12/20 02:29:21;;;;;;;33.90;21.93;;;;;;;-1.16;100.00;97037.84;5032185;28;101827;-70
2022/12/20 02:31:56;;;;;;;34.90;23.50;;;;;;;-1.11;100.00;97031.13;5028146;28;105303;-70
2022/12/20 02:34:26;;;;;;;37.17;24.03;;;;;;;-1.12;100.00;97034.72;5030872;27;101653;-70
2022/12/20 02:36:53;;;;;;;35.93;23.67;;;;;;;-1.17;100.00;97031.78;5030080;27;102285;-70
2022/12/20 02:39:23;;;;;;;35.37;23.30;;;;;;;-1.08;100.00;97022.16;5028609;28;105390;-70
2022/12/20 02:41:55;;;;;;;33.30;21.47;;;;;;;-1.13;100.00;97033.09;5028820;28;101898;-70
2022/12/20 02:47:17;;;;;;;30.67;20.83;;;;;;;-1.27;100.00;97028.50;5027983;28;105849;-70
2022/12/20 02:49:46;;;;;;;30.37;20.23;;;;;;;-1.20;100.00;97028.69;5028362;27;101794;-70
2022/12/20 02:52:15;;;;;;;33.93;20.33;;;;;;;-1.26;100.00;97022.31;5031554;28;104861;-70
2022/12/20 02:54:43;;;;;;;30.97;20.37;;;;;;;-1.25;100.00;97023.97;5028940;27;101965;-70
2022/12/20 02:57:16;;;;;;;31.20;20.60;;;;;;;-1.32;100.00;97022.97;5029081;28;105120;-70
2022/12/20 02:59:48;;;;;;;31.73;20.10;;;;;;;-1.17;100.00;97020.53;5028035;28;105590;-70
2022/12/20 03:02:18;;;;;;;34.07;21.00;;;;;;;-1.08;100.00;97022.16;5028798;28;101787;-70
2022/12/20 03:04:47;;;;;;;32.70;20.47;;;;;;;-1.09;100.00;97023.94;5030220;27;102800;-70
2022/12/20 03:07:15;;;;;;;33.17;20.70;;;;;;;-1.08;100.00;97022.16;5029204;28;102741;-70
2022/12/20 03:09:45;;;;;;;31.83;20.77;;;;;;;-1.04;100.00;97020.88;5029049;28;101996;-70
2022/12/20 03:12:16;;;;;;;30.47;19.60;;;;;;;-1.06;100.00;97015.81;5028993;28;104958;-70
2022/12/20 03:14:43;;;;;;;32.33;20.60;;;;;;;-1.03;100.00;97023.31;5031697;27;102343;-70
2022/12/20 03:17:13;;;;;;;33.87;21.40;;;;;;;-1.03;100.00;97031.16;5028777;27;104459;-70
2022/12/20 03:19:41;;;;;;;37.07;21.27;;;;;;;-1.15;100.00;97035.03;5028408;28;105332;-70
2022/12/20 03:22:08;;;;;;;37.53;22.43;;;;;;;-1.22;100.00;97028.84;5028491;28;101979;-70
2022/12/20 03:24:36;;;;;;;37.93;23.47;;;;;;;-1.16;100.00;97027.41;5029083;28;105510;-70
2022/12/20 03:27:08;;;;;;;35.10;22.67;;;;;;;-1.15;100.00;97026.41;5028066;28;105367;-70
2022/12/20 03:29:35;;;;;;;34.50;21.93;;;;;;;-1.12;100.00;97024.28;5028286;28;101877;-70
2022/12/20 03:32:03;;;;;;;35.67;22.13;;;;;;;-1.08;100.00;97020.38;5028929;28;104807;-70
2022/12/20 03:34:30;;;;;;;33.37;21.10;;;;;;;-1.07;100.00;97001.13;5028668;28;104399;-70
2022/12/20 03:36:58;;;;;;;31.60;21.67;;;;;;;-1.14;100.00;96989.72;5033945;27;101965;-70
2022/12/20 03:39:26;;;;;;;34.30;21.10;;;;;;;-1.20;100.00;96990.34;5028840;28;104284;-70
2022/12/20 03:41:55;;;;;;;32.70;21.57;;;;;;;-1.38;100.00;96994.91;5029418;28;101883;-70
2022/12/20 03:44:24;;;;;;;31.60;21.03;;;;;;;-1.45;100.00;97016.59;5029153;28;105416;-70
2022/12/20 03:46:52;;;;;;;31.40;20.20;;;;;;;-1.47;100.00;97024.59;5030125;27;102483;-70
2022/12/20 03:49:20;;;;;;;30.67;20.23;;;;;;;-1.46;100.00;97021.00;5029023;28;101952;-70
2022/12/20 03:51:51;;;;;;;30.67;20.27;;;;;;;-1.46;100.00;97017.56;5028134;28;104122;-70
2022/12/20 03:54:20;;;;;;;33.70;21.00;;;;;;;-1.48;100.00;97022.13;5028487;28;105091;-70
2022/12/20 03:57:07;;;;;;;33.37;20.47;;;;;;;-1.40;100.00;97014.31;5030057;28;101814;-70
2022/12/20 03:59:35;;;;;;;31.83;19.87;;;;;;;-1.44;100.00;97013.81;5031837;28;105228;-70
2022/12/20 04:02:05;;;;;;;31.63;20.70;;;;;;;-1.36;100.00;97008.63;5014253;28;101943;-70
2022/12/20 04:04:33;;;;;;;32.73;20.40;;;;;;;-1.26;100.00;97022.31;5032017;28;105353;-70
2022/12/20 04:07:00;;;;;;;32.77;20.97;;;;;;;-1.28;100.00;97016.44;5031597;28;105793;-70
2022/12/20 04:09:29;;;;;;;34.90;21.27;;;;;;;-1.26;100.00;97014.47;5032454;28;101914;-70
2022/12/20 04:12:05;;;;;;;31.80;20.57;;;;;;;-1.33;100.00;97012.69;5031793;28;104079;-70
2022/12/20 04:14:35;;;;;;;28.57;19.20;;;;;;;-1.40;100.00;96999.50;5030183;28;103804;-70
2022/12/20 04:17:03;;;;;;;28.93;19.87;;;;;;;-1.47;100.00;96995.09;5032889;27;101804;-70
2022/12/20 04:19:31;;;;;;;29.20;18.30;;;;;;;-1.51;100.00;96984.16;5031585;28;104892;-70
2022/12/20 04:21:59;;;;;;;30.73;19.17;;;;;;;-1.55;100.00;96975.03;5035051;28;104934;-70
2022/12/20 04:24:33;;;;;;;26.07;17.10;;;;;;;-1.56;100.00;96972.56;5031997;28;103625;-70
2022/12/20 04:27:14;;;;;;;26.40;17.87;;;;;;;-1.70;100.00;96974.00;5031923;28;105769;-70
2022/12/20 04:29:41;;;;;;;27.80;17.97;;;;;;;-1.81;100.00;96970.91;5032334;28;101859;-70
2022/12/20 04:32:12;;;;;;;28.37;17.70;;;;;;;-1.75;100.00;96976.28;5031759;27;104679;-70
2022/12/20 04:34:39;;;;;;;28.80;18.67;;;;;;;-1.61;100.00;96977.44;5031693;28;105401;-70
2022/12/20 04:37:06;;;;;;;31.90;20.60;;;;;;;-1.70;100.00;96979.22;5031793;28;101755;-70
2022/12/20 04:39:55;;;;;;;32.00;20.80;;;;;;;-1.75;100.00;96983.31;5032431;28;103351;-70
2022/12/20 04:42:26;;;;;;;28.37;19.47;;;;;;;-1.68;100.00;96981.69;5035312;27;102179;-70
2022/12/20 04:44:55;;;;;;;35.30;21.20;;;;;;;-1.62;100.00;96994.91;5031630;28;105215;-70
2022/12/20 04:47:25;;;;;;;33.70;20.60;;;;;;;-1.53;100.00;96987.91;5031093;28;105343;-70
2022/12/20 04:49:53;;;;;;;32.23;20.97;;;;;;;-1.55;100.00;96989.84;5031587;28;102003;-70
2022/12/20 04:55:10;;;;;;;35.03;21.90;;;;;;;-1.67;100.00;96991.97;5004191;28;105644;-70
2022/12/20 04:57:37;;;;;;;34.70;21.37;;;;;;;-1.69;100.00;96983.47;5032393;28;101933;-70
2022/12/20 05:00:07;;;;;;;36.33;22.43;;;;;;;-1.69;100.00;96980.84;5030916;28;105330;-70
2022/12/20 05:02:39;;;;;;;35.90;22.70;;;;;;;-1.74;100.00;96985.75;5030274;28;105243;-70
2022/12/20 05:05:10;;;;;;;37.67;23.10;;;;;;;-1.67;100.00;96989.34;5033583;28;102049;-70
2022/12/20 05:07:45;;;;;;;35.70;23.20;;;;;;;-1.68;100.00;96987.72;5029627;28;105211;-70
2022/12/20 05:10:13;;;;;;;37.63;23.43;;;;;;;-1.54;100.00;96984.47;5013207;28;102022;-70
2022/12/20 05:12:41;;;;;;;38.63;23.67;;;;;;;-1.48;100.00;96988.25;5029593;28;105347;-70
2022/12/20 05:15:13;;;;;;;36.83;23.13;;;;;;;-1.34;100.00;96979.75;5029312;28;105530;-70
2022/12/20 05:17:40;;;;;;;36.67;22.70;;;;;;;-1.37;100.00;96983.50;5029600;28;101976;-70
2022/12/20 05:20:08;;;;;;;37.57;22.13;;;;;;;-1.25;100.00;96982.22;5029423;28;105321;-70
2022/12/20 05:28:32;;;;;;;35.57;20.73;;;;;;;-1.05;100.00;96960.00;4994400;28;105518;-70
2022/12/20 05:30:59;;;;;;;32.77;19.83;;;;;;;-0.98;100.00;96947.97;5029702;28;101861;-70
2022/12/20 05:33:26;;;;;;;31.40;20.17;;;;;;;-0.96;100.00;96945.97;5029029;28;105189;-70
2022/12/20 05:35:53;;;;;;;28.07;18.93;;;;;;;-1.09;100.00;96950.88;5029203;28;105858;-70
2022/12/20 05:38:20;;;;;;;31.30;20.63;;;;;;;-1.23;100.00;96948.94;5029474;28;101885;-70
2022/12/20 05:40:49;;;;;;;34.87;20.23;;;;;;;-1.13;100.00;96949.59;5029168;28;105567;-70
2022/12/20 05:43:17;;;;;;;32.50;21.03;;;;;;;-0.98;100.00;96942.75;5028844;28;105143;-70
2022/12/20 05:45:47;;;;;;;30.67;20.40;;;;;;;-0.99;100.00;96946.31;5029469;28;102016;-70
2022/12/20 05:48:16;;;;;;;31.87;20.37;;;;;;;-0.99;100.00;96938.47;5029280;28;105070;-70
2022/12/20 05:50:44;;;;;;;30.63;20.40;;;;;;;-0.95;100.00;96928.50;5032333;28;105394;-70
2022/12/20 05:53:26;;;;;;;29.30;20.10;;;;;;;-0.99;100.00;96935.84;5029450;28;105703;-70
2022/12/20 05:56:00;;;;;;;30.77;20.07;;;;;;;-1.02;100.00;96936.22;5028796;28;105397;-70
2022/12/20 05:58:31;;;;;;;30.27;20.30;;;;;;;-1.09;100.00;96932.59;5029076;28;101829;-70
2022/12/20 06:01:01;;;;;;;31.50;20.03;;;;;;;-1.01;100.00;96916.94;5029079;28;105101;-70
2022/12/20 06:03:29;;;;;;;28.27;19.50;;;;;;;-1.03;100.00;96912.88;5028451;28;105483;-70
2022/12/20 06:05:57;;;;;;;33.07;20.13;;;;;;;-1.02;100.00;96933.59;5029105;28;101967;-70
2022/12/20 06:08:27;;;;;;;29.43;19.47;;;;;;;-1.02;100.00;96931.00;5028748;28;103868;-70
2022/12/20 06:10:56;;;;;;;33.77;20.07;;;;;;;-0.92;100.00;96929.03;5028325;28;103930;-70
2022/12/20 06:13:25;;;;;;;32.93;20.93;;;;;;;-0.98;100.00;96921.84;5032152;28;101945;-70
2022/12/20 06:15:54;;;;;;;31.60;22.33;;;;;;;-1.05;100.00;96933.91;5028375;28;105061;-70
2022/12/20 06:18:21;;;;;;;32.23;23.33;;;;;;;-0.90;100.00;96924.44;5027996;28;101802;-70
2022/12/20 06:20:51;;;;;;;39.87;26.53;;;;;;;-0.82;100.00;96924.41;5028968;28;105070;-70
2022/12/20 06:23:22;;;;;;;38.50;25.37;;;;;;;-0.72;100.00;96921.63;5027437;28;105839;-70
2022/12/20 06:26:08;;;;;;;33.33;23.77;;;;;;;-0.74;100.00;96929.63;5028596;28;101807;-70
2022/12/20 06:28:41;;;;;;;35.93;23.17;;;;;;;-0.72;100.00;96914.59;5028428;28;104816;-70
2022/12/20 06:31:10;;;;;;;38.43;25.10;;;;;;;-0.70;100.00;96910.03;5027974;28;105421;-70
2022/12/20 06:33:48;;;;;;;32.53;21.10;;;;;;;-0.73;100.00;96915.56;5028669;28;101897;-70
2022/12/20 06:36:16;;;;;;;34.50;21.90;;;;;;;-0.87;100.00;96916.28;5031637;28;105228;-70
2022/12/20 06:38:44;;;;;;;31.30;20.47;;;;;;;-0.97;100.00;96920.88;5028251;28;101833;-70
2022/12/20 06:41:11;;;;;;;30.27;21.27;;;;;;;-0.85;100.00;96913.47;5028239;28;105783;-70
2022/12/20 06:43:40;;;;;;;30.83;20.93;;;;;;;-0.79;100.00;96913.63;5027921;28;105281;-70
2022/12/20 06:46:08;;;;;;;33.37;21.97;;;;;;;-0.83;100.00;96908.94;5028007;28;102271;-70
2022/12/20 06:48:36;;;;;;;30.03;20.73;;;;;;;-0.85;100.00;96908.25;5028169;28;104701;-70
2022/12/20 06:51:05;;;;;;;32.97;21.40;;;;;;;-0.77;100.00;96910.88;5027728;28;105125;-70
2022/12/20 06:53:32;;;;;;;31.90;21.30;;;;;;;-0.74;100.00;96905.28;5028087;28;102290;-70
2022/12/20 06:55:59;;;;;;;32.00;20.33;;;;;;;-0.71;100.00;96915.41;5031289;28;105614;-70
2022/12/20 06:58:26;;;;;;;29.60;20.57;;;;;;;-0.75;100.00;96917.56;5028120;28;101847;-70
2022/12/20 07:00:56;;;;;;;29.27;20.23;;;;;;;-0.78;100.00;96906.63;5028304;28;105550;-70
2022/12/20 07:03:22;;;;;;;36.30;22.70;;;;;;;-0.71;100.00;96913.59;5027341;28;105643;-70
2022/12/20 07:05:52;;;;;;;32.57;21.27;;;;;;;-0.63;100.00;96897.09;5028118;28;102001;-70
2022/12/20 07:08:19;;;;;;;27.10;20.23;;;;;;;-0.65;100.00;96896.47;5028144;28;104752;-70
2022/12/20 07:10:46;;;;;;;32.53;20.67;;;;;;;-0.67;100.00;96901.84;5029016;27;102598;-70
2022/12/20 07:13:15;;;;;;;34.73;21.63;;;;;;;-0.69;100.00;96901.22;5027801;28;101896;-70
2022/12/20 07:15:42;;;;;;;27.00;19.53;;;;;;;-0.54;100.00;96894.31;5027974;28;105762;-70
2022/12/20 07:18:11;;;;;;;29.03;20.40;;;;;;;-0.50;100.00;96892.97;5030419;28;105339;-70
2022/12/20 07:20:37;;;;;;;32.77;22.87;;;;;;;-0.52;100.00;96897.56;5027932;28;105524;-70
2022/12/20 07:23:04;;;;;;;33.07;22.90;;;;;;;-0.42;100.00;96900.78;5028846;28;102661;-70
2022/12/20 07:25:31;;;;;;;34.63;21.60;;;;;;;-0.28;100.00;96905.28;5027607;28;101884;-70
2022/12/20 07:27:58;;;;;;;37.53;23.83;;;;;;;-0.23;100.00;96908.19;5029317;27;102035;-70
2022/12/20 07:30:25;;;;;;;35.43;23.30;;;;;;;-0.33;100.00;96907.56;5027373;28;104913;-70
2022/12/20 07:32:52;;;;;;;34.33;22.37;;;;;;;-0.07;100.00;96897.66;5029058;27;101935;-70
2022/12/20 07:35:21;;;;;;;33.83;22.80;;;;;;;-0.03;100.00;96888.47;5028803;27;105123;-70
2022/12/20 07:37:48;;;;;;;31.87;22.10;;;;;;;-0.02;100.00;96888.31;5031972;27;102629;-70
2022/12/20 07:40:16;;;;;;;34.07;23.20;;;;;;;-0.08;100.00;96885.56;5034685;28;101854;-70
2022/12/20 07:42:42;;;;;;;33.90;23.50;;;;;;;-0.09;100.00;96883.94;5032233;27;103010;-70
2022/12/20 07:45:10;;;;;;;46.80;31.10;;;;;;;-0.16;100.00;96883.00;5031171;28;101870;-70
2022/12/20 07:47:37;;;;;;;45.13;30.40;;;;;;;-0.18;100.00;96886.78;5032557;27;102852;-70
2022/12/20 07:50:04;;;;;;;42.33;27.57;;;;;;;-0.18;100.00;96892.00;5032061;27;102488;-70
2022/12/20 07:52:34;;;;;;;38.63;24.90;;;;;;;-0.19;100.00;96893.81;5032293;27;101896;-70
2022/12/20 07:55:05;;;;;;;37.30;25.03;;;;;;;-0.13;100.00;96891.31;5032478;27;102706;-70
2022/12/20 07:57:42;;;;;;;42.17;27.00;;;;;;;-0.02;100.00;96898.78;5032080;27;102583;-70
2022/12/20 08:00:10;;;;;;;36.70;24.23;;;;;;;0.09;100.00;96905.41;5032559;27;102554;-70
2022/12/20 08:02:47;;;;;;;36.80;23.70;;;;;;;0.15;100.00;96907.31;5033497;28;105182;-70
2022/12/20 08:05:15;;;;;;;38.33;25.03;;;;;;;0.28;100.00;96910.97;5030878;28;101970;-70
2022/12/20 08:07:45;;;;;;;42.03;25.27;;;;;;;0.47;100.00;96912.31;5030903;28;103909;-70
2022/12/20 08:10:15;;;;;;;35.20;24.93;;;;;;;0.52;100.00;96910.00;5030428;28;105485;-70
2022/12/20 08:12:45;;;;;;;32.97;23.53;;;;;;;0.54;100.00;96900.16;5031798;27;101724;-70
2022/12/20 08:15:12;;;;;;;34.97;23.83;;;;;;;0.67;100.00;96897.78;5032188;27;101785;-70
2022/12/20 08:17:39;;;;;;;34.50;23.57;;;;;;;0.72;100.00;96895.44;5031534;28;103054;-70
2022/12/20 08:20:07;;;;;;;32.80;23.70;;;;;;;0.89;100.00;96895.09;5030422;28;101868;-70
2022/12/20 08:22:34;;;;;;;33.70;23.83;;;;;;;0.62;100.00;96905.34;5030580;28;105663;-70
2022/12/20 08:25:07;;;;;;;32.30;22.83;;;;;;;0.62;100.00;96902.72;5033431;28;105441;-70
2022/12/20 08:27:34;;;;;;;30.77;22.50;;;;;;;0.81;100.00;96902.22;5031897;27;102862;-70
2022/12/20 08:30:01;;;;;;;46.93;28.40;;;;;;;0.79;100.00;96906.81;5030155;28;105809;-70
2022/12/20 08:32:28;;;;;;;52.67;29.97;;;;;;;0.78;100.00;96899.97;5031911;27;101926;-70
2022/12/20 08:34:55;;;;;;;42.30;26.97;;;;;;;0.90;100.00;96890.69;5031791;27;103034;-70
2022/12/20 08:37:22;;;;;;;36.93;25.20;;;;;;;1.01;100.00;96887.63;5029846;28;105383;-70
2022/12/20 08:39:49;;;;;;;36.40;24.77;;;;;;;1.07;100.00;96887.75;5030170;28;102013;-70
2022/12/20 08:42:18;;;;;;;32.93;23.60;;;;;;;0.93;100.00;96892.97;5030438;28;104954;-70
2022/12/20 08:44:44;;;;;;;37.53;23.93;;;;;;;1.12;100.00;96897.66;5029667;28;105803;-70
2022/12/20 08:47:11;;;;;;;34.33;24.43;;;;;;;1.18;100.00;96891.69;5034324;27;101653;-70
2022/12/20 08:49:38;;;;;;;35.73;23.97;;;;;;;1.28;100.00;96889.63;5029407;28;105347;-70
2022/12/20 08:52:05;;;;;;;37.53;23.13;;;;;;;1.48;100.00;96885.47;5031556;27;101813;-70
2022/12/20 08:54:32;;;;;;;35.60;23.27;;;;;;;1.58;100.00;96870.28;5030128;28;105747;-70
2022/12/20 08:56:59;;;;;;;33.10;23.03;;;;;;;1.59;100.00;96874.53;5031151;27;103081;-70
2022/12/20 08:59:28;;;;;;;35.30;24.67;;;;;;;1.55;100.00;96878.50;5031487;27;101799;-70
2022/12/20 09:01:55;;;;;;;46.83;28.63;;;;;;;1.54;100.00;96872.44;5031062;27;102876;-70
2022/12/20 09:04:22;;;;;;;51.67;30.97;;;;;;;1.55;100.00;96868.03;5029380;28;105043;-70
2022/12/20 09:06:49;;;;;;;48.40;29.10;;;;;;;1.72;100.00;96879.94;5033375;28;102028;-70
2022/12/20 09:09:16;;;;;;;45.80;29.83;;;;;;;1.65;100.00;96879.84;5030895;27;102616;-70
2022/12/20 09:11:43;;;;;;;43.10;28.33;;;;;;;1.67;100.00;96879.66;5030169;28;101775;-70
2022/12/20 09:14:10;;;;;;;41.50;26.77;;;;;;;1.59;100.00;96874.53;5031213;27;102523;-70
2022/12/20 09:16:38;;;;;;;49.87;32.13;;;;;;;1.78;100.00;96877.41;5028998;28;105945;-70
2022/12/20 09:19:05;;;;;;;45.40;28.87;;;;;;;1.84;100.00;96878.44;5029015;28;102012;-70
2022/12/20 09:21:32;;;;;;;46.87;29.07;;;;;;;1.81;100.00;96876.22;5012845;28;105046;-70
2022/12/20 09:23:59;;;;;;;48.10;32.40;;;;;;;1.77;100.00;96878.41;5029238;28;105683;-70
2022/12/20 09:26:26;;;;;;;53.27;33.47;;;;;;;1.67;100.00;96874.41;5029268;28;101902;-70
2022/12/20 09:28:53;;;;;;;47.80;31.27;;;;;;;1.71;100.00;96875.69;5032348;28;105579;-70
2022/12/20 09:31:24;;;;;;;42.40;29.93;;;;;;;1.77;100.00;96875.78;5029472;28;102157;-70
2022/12/20 09:33:53;;;;;;;44.67;31.43;;;;;;;1.85;100.00;96874.81;5029313;28;106202;-70
2022/12/20 09:36:22;;;;;;;43.40;29.67;;;;;;;1.96;100.00;96874.34;5028817;28;105151;-70
2022/12/20 09:38:49;;;;;;;42.10;29.40;;;;;;;2.09;100.00;96866.63;5029297;28;101890;-70
2022/12/20 09:41:25;;;;;;;45.30;30.37;;;;;;;2.07;100.00;96864.19;5029423;28;105107;-70
2022/12/20 09:43:52;;;;;;;43.13;29.90;;;;;;;2.18;100.00;96853.22;5028766;28;105211;-70
2022/12/20 09:46:19;;;;;;;39.27;29.17;;;;;;;2.26;100.00;96853.09;5030449;27;101859;-70
2022/12/20 09:48:47;;;;;;;39.17;28.00;;;;;;;2.31;100.00;96853.34;5029148;28;105719;-70
2022/12/20 09:51:34;;;;;;;42.47;28.87;;;;;;;2.43;100.00;96841.34;5032023;28;105522;-70
2022/12/20 09:54:26;;;;;;;35.67;25.47;;;;;;;2.46;100.00;96835.69;5029371;28;105251;-70
2022/12/20 09:57:00;;;;;;;40.50;27.57;;;;;;;2.47;100.00;96847.03;5030123;27;102447;-70
2022/12/20 09:59:28;;;;;;;34.90;25.80;;;;;;;2.47;100.00;96833.91;5027637;27;101867;-70
2022/12/20 10:01:55;;;;;;;35.77;24.70;;;;;;;2.54;100.00;96840.00;5028943;28;105390;-70
2022/12/20 10:04:24;;;;;;;34.73;26.30;;;;;;;2.65;100.00;96823.75;5028550;28;105791;-70
2022/12/20 10:07:08;;;;;;;36.53;26.73;;;;;;;2.89;100.00;96826.75;5030217;27;101838;-70
2022/12/20 10:09:52;;;;;;;35.37;24.80;;;;;;;3.12;100.00;96815.97;5030572;27;102488;-70
2022/12/20 10:12:28;;;;;;;32.57;24.80;;;;;;;3.16;100.00;96806.72;5028312;28;105360;-70
2022/12/20 10:15:17;;;;;;;31.77;23.53;;;;;;;3.34;100.00;96809.63;5033621;27;101749;-70
2022/12/20 10:17:59;;;;;;;28.50;21.30;;;;;;;3.39;100.00;96794.09;5029406;27;103034;-70
2022/12/20 10:20:39;;;;;;;30.73;23.63;;;;;;;3.44;100.00;96794.31;5030522;27;101993;-70
2022/12/20 10:23:13;;;;;;;28.37;21.70;;;;;;;3.38;100.00;96792.47;5028596;28;105368;-70
2022/12/20 10:25:41;;;;;;;27.73;20.43;;;;;;;3.39;100.00;96796.72;5027981;28;105280;-70
2022/12/20 10:28:14;;;;;;;26.23;19.00;;;;;;;3.39;100.00;96794.09;5028579;28;102043;-69
2022/12/20 10:30:41;;;;;;;27.37;20.07;;;;;;;3.52;100.00;96789.69;5030150;28;102481;-70
2022/12/20 10:33:18;;;;;;;25.87;19.73;;;;;;;3.57;100.00;96795.19;5027598;28;105764;-70
2022/12/20 10:35:45;;;;;;;26.30;19.73;;;;;;;3.64;100.00;96789.91;5028651;28;101908;-70
2022/12/20 10:38:16;;;;;;;24.47;18.77;;;;;;;3.67;100.00;96781.66;5031383;28;105174;-70
2022/12/20 10:40:45;;;;;;;24.73;18.97;;;;;;;3.68;100.00;96783.25;5030233;28;101812;-70
2022/12/20 10:43:17;;;;;;;24.37;18.47;;;;;;;3.61;100.00;96777.97;5028467;28;104087;-70
2022/12/20 10:45:55;;;;;;;25.57;18.80;;;;;;;3.71;100.00;96777.63;5027890;28;105270;-70
2022/12/20 10:48:30;;;;;;;24.90;19.20;;;;;;;3.77;100.00;96782.09;5029794;27;102007;-70
2022/12/20 10:50:59;;;;;;;23.43;18.03;;;;;;;3.71;100.00;96777.63;5030040;27;101791;-70
2022/12/20 10:53:28;;;;;;;23.13;18.60;;;;;;;3.72;100.00;96768.72;5027644;28;105740;-70
2022/12/20 10:56:12;;;;;;;24.40;18.97;;;;;;;3.62;100.00;96770.91;5028237;28;101880;-70
2022/12/20 10:58:40;;;;;;;21.23;16.97;;;;;;;3.56;100.00;96769.88;5028209;28;105205;-70
2022/12/20 11:01:13;;;;;;;21.30;17.20;;;;;;;3.70;100.00;96757.56;5030606;28;101844;-70
2022/12/20 11:03:53;;;;;;;18.10;15.43;;;;;;;3.74;100.00;96756.16;5027940;28;105456;-70
2022/12/20 11:06:23;;;;;;;22.67;17.53;;;;;;;3.85;100.00;96743.25;5027558;28;105831;-70
2022/12/20 11:08:52;;;;;;;20.50;16.47;;;;;;;3.92;100.00;96744.06;5028043;28;101839;-70
2022/12/20 11:11:21;;;;;;;22.70;17.17;;;;;;;3.92;100.00;96746.69;5027632;28;105642;-70
2022/12/20 11:13:51;;;;;;;26.30;17.67;;;;;;;4.00;100.00;96740.44;5027284;28;105593;-70
2022/12/20 11:16:29;;;;;;;24.50;16.73;;;;;;;3.99;100.00;96721.19;5027941;28;101989;-70
2022/12/20 11:19:14;;;;;;;22.23;16.60;;;;;;;4.08;100.00;96721.81;5028567;28;102957;-70
2022/12/20 11:21:49;;;;;;;22.93;18.27;;;;;;;4.06;100.00;96722.03;5032208;28;103635;-70
2022/12/20 11:24:30;;;;;;;25.33;19.53;;;;;;;4.05;100.00;96727.50;5027968;28;104983;-69
2022/12/20 11:27:11;;;;;;;28.10;19.63;;;;;;;3.93;100.00;96734.38;5010590;28;103866;-70
2022/12/20 11:30:00;;;;;;;28.70;20.57;;;;;;;4.04;100.00;96728.50;5027849;28;101873;-70